createdAt,value
2017-10-31T00:00:55.872Z,0
2017-10-31T00:01:58.165Z,0
2017-10-31T00:02:59.429Z,0
2017-10-31T00:04:01.126Z,0
2017-10-31T00:05:01.844Z,0
2017-10-31T00:06:02.632Z,0
2017-10-31T00:07:04.093Z,0
2017-10-31T00:08:06.303Z,0
2017-10-31T00:09:07.661Z,0
2017-10-31T00:10:09.243Z,0
2017-10-31T00:11:09.983Z,0
2017-10-31T00:12:10.707Z,0
2017-10-31T00:13:11.903Z,0
2017-10-31T00:14:12.692Z,0
2017-10-31T00:15:13.422Z,0
2017-10-31T00:16:14.144Z,0
2017-10-31T00:17:14.867Z,0
2017-10-31T00:18:15.755Z,0
2017-10-31T00:19:16.552Z,0
2017-10-31T00:20:17.282Z,0
2017-10-31T00:21:18.002Z,0
2017-10-31T00:22:18.728Z,0
2017-10-31T00:23:19.581Z,0
2017-10-31T00:24:20.363Z,0
2017-10-31T00:25:21.084Z,0
2017-10-31T00:26:21.884Z,0
2017-10-31T00:27:22.706Z,0
2017-10-31T00:28:23.562Z,0
2017-10-31T00:29:24.283Z,0
2017-10-31T00:30:25.081Z,0
2017-10-31T00:31:25.887Z,0
2017-10-31T00:32:26.677Z,0
2017-10-31T00:33:27.647Z,0
2017-10-31T00:34:28.437Z,0
2017-10-31T00:35:29.221Z,0
2017-10-31T00:36:30.001Z,0
2017-10-31T00:37:30.742Z,0
2017-10-31T00:38:31.531Z,0
2017-10-31T00:39:32.253Z,0
2017-10-31T00:40:32.978Z,0
2017-10-31T00:41:33.802Z,0
2017-10-31T00:42:34.521Z,0
2017-10-31T00:43:35.252Z,0
2017-10-31T00:44:35.985Z,0
2017-10-31T00:45:36.741Z,0
2017-10-31T00:46:37.869Z,0
2017-10-31T00:47:38.584Z,0
2017-10-31T00:48:39.982Z,0
2017-10-31T00:49:40.641Z,0
2017-10-31T00:50:41.444Z,0
2017-10-31T00:51:42.203Z,0
2017-10-31T00:52:42.928Z,0
2017-10-31T00:53:43.715Z,0
2017-10-31T00:54:44.432Z,0
2017-10-31T00:55:45.152Z,0
2017-10-31T00:56:45.933Z,0
2017-10-31T00:57:46.723Z,0
2017-10-31T00:58:47.443Z,0
2017-10-31T00:59:48.226Z,0
2017-10-31T01:00:48.956Z,0
2017-10-31T01:01:49.791Z,0
2017-10-31T01:02:50.565Z,0
2017-10-31T01:03:51.333Z,0
2017-10-31T01:04:52.075Z,0
2017-10-31T01:05:52.862Z,0
2017-10-31T01:06:53.643Z,0
2017-10-31T01:07:54.431Z,0
2017-10-31T01:08:55.141Z,0
2017-10-31T01:09:55.872Z,0
2017-10-31T01:10:56.592Z,0
2017-10-31T01:11:57.380Z,0
2017-10-31T01:12:58.143Z,0
2017-10-31T01:13:58.866Z,0
2017-10-31T01:14:59.656Z,0
2017-10-31T01:16:00.433Z,0
2017-10-31T01:17:01.503Z,0
2017-10-31T01:18:02.294Z,0
2017-10-31T01:19:03.098Z,0
2017-10-31T01:20:03.873Z,0
2017-10-31T01:21:04.655Z,0
2017-10-31T01:22:05.537Z,0
2017-10-31T01:23:06.335Z,0
2017-10-31T01:24:07.113Z,0
2017-10-31T01:25:07.835Z,0
2017-10-31T01:26:08.617Z,0
2017-10-31T01:27:09.433Z,0
2017-10-31T01:28:10.162Z,0
2017-10-31T01:29:10.887Z,0
2017-10-31T01:30:11.683Z,0
2017-10-31T01:31:12.493Z,0
2017-10-31T01:32:13.261Z,0
2017-10-31T01:33:14.000Z,0
2017-10-31T01:34:14.718Z,0
2017-10-31T01:35:15.443Z,0
2017-10-31T01:36:16.167Z,0
2017-10-31T01:37:17.373Z,0
2017-10-31T01:38:18.155Z,0
2017-10-31T01:39:18.922Z,0
2017-10-31T01:40:19.735Z,0
2017-10-31T01:41:20.452Z,0
2017-10-31T01:42:21.187Z,0
2017-10-31T01:43:21.970Z,0
2017-10-31T01:44:22.771Z,0
2017-10-31T01:45:23.492Z,0
2017-10-31T01:46:24.225Z,0
2017-10-31T01:47:24.996Z,0
2017-10-31T01:48:25.761Z,0
2017-10-31T01:49:26.557Z,0
2017-10-31T01:50:27.571Z,0
2017-10-31T01:51:28.308Z,0
2017-10-31T01:52:29.071Z,0
2017-10-31T01:53:29.805Z,0
2017-10-31T01:54:30.560Z,0
2017-10-31T01:55:31.700Z,0
2017-10-31T01:56:32.423Z,0
2017-10-31T01:57:33.141Z,0
2017-10-31T01:58:33.877Z,0
2017-10-31T01:59:34.640Z,0
2017-10-31T02:00:35.446Z,0
2017-10-31T02:01:36.234Z,0
2017-10-31T02:02:37.023Z,0
2017-10-31T02:03:37.805Z,0
2017-10-31T02:04:38.522Z,0
2017-10-31T02:05:39.352Z,0
2017-10-31T02:06:40.072Z,0
2017-10-31T02:07:40.796Z,0
2017-10-31T02:08:41.522Z,0
2017-10-31T02:09:42.244Z,0
2017-10-31T02:10:43.412Z,0
2017-10-31T02:11:44.135Z,0
2017-10-31T02:12:44.943Z,0
2017-10-31T02:13:45.712Z,0
2017-10-31T02:14:46.422Z,0
2017-10-31T02:15:47.492Z,0
2017-10-31T02:16:48.231Z,0
2017-10-31T02:17:48.931Z,0
2017-10-31T02:18:49.662Z,0
2017-10-31T02:19:50.387Z,0
2017-10-31T02:20:51.217Z,0
2017-10-31T02:21:51.982Z,0
2017-10-31T02:22:52.694Z,0
2017-10-31T02:23:53.411Z,0
2017-10-31T02:24:54.158Z,0
2017-10-31T02:25:54.979Z,0
2017-10-31T02:26:55.711Z,0
2017-10-31T02:27:56.442Z,0
2017-10-31T02:28:57.167Z,0
2017-10-31T02:29:57.926Z,0
2017-10-31T02:30:59.025Z,0
2017-10-31T02:31:59.752Z,0
2017-10-31T02:33:00.473Z,0
2017-10-31T02:34:01.191Z,0
2017-10-31T02:35:01.922Z,0
2017-10-31T02:36:02.709Z,0
2017-10-31T02:37:03.465Z,0
2017-10-31T02:38:04.191Z,0
2017-10-31T02:39:04.914Z,0
2017-10-31T02:40:05.639Z,0
2017-10-31T02:41:06.654Z,0
2017-10-31T02:42:07.374Z,0
2017-10-31T02:43:08.098Z,0
2017-10-31T02:44:08.813Z,0
2017-10-31T02:45:09.614Z,0
2017-10-31T02:46:10.464Z,0
2017-10-31T02:47:11.173Z,0
2017-10-31T02:48:11.978Z,0
2017-10-31T02:49:12.772Z,0
2017-10-31T02:50:13.491Z,0
2017-10-31T02:51:14.327Z,0
2017-10-31T02:52:15.051Z,0
2017-10-31T02:53:15.801Z,0
2017-10-31T02:54:16.538Z,0
2017-10-31T02:55:17.334Z,0
2017-10-31T02:56:18.122Z,0
2017-10-31T02:57:18.842Z,0
2017-10-31T02:58:19.574Z,0
2017-10-31T02:59:20.372Z,0
2017-10-31T03:00:21.176Z,0
2017-10-31T03:01:22.062Z,0
2017-10-31T03:02:22.784Z,0
2017-10-31T03:03:23.504Z,0
2017-10-31T03:04:24.312Z,0
2017-10-31T03:05:25.055Z,0
2017-10-31T03:06:25.832Z,0
2017-10-31T03:07:26.580Z,0
2017-10-31T03:08:27.387Z,0
2017-10-31T03:09:28.160Z,0
2017-10-31T03:10:28.882Z,0
2017-10-31T03:11:29.664Z,0
2017-10-31T03:12:30.382Z,0
2017-10-31T03:13:31.094Z,0
2017-10-31T03:14:31.804Z,0
2017-10-31T03:15:32.622Z,0
2017-10-31T03:16:33.447Z,0
2017-10-31T03:17:34.263Z,0
2017-10-31T03:18:34.995Z,0
2017-10-31T03:19:35.722Z,0
2017-10-31T03:20:36.442Z,0
2017-10-31T03:21:37.219Z,0
2017-10-31T03:22:37.947Z,0
2017-10-31T03:23:38.668Z,0
2017-10-31T03:24:39.393Z,0
2017-10-31T03:25:40.115Z,0
2017-10-31T03:26:41.017Z,0
2017-10-31T03:27:41.798Z,0
2017-10-31T03:28:42.612Z,0
2017-10-31T03:29:43.342Z,0
2017-10-31T03:30:44.073Z,0
2017-10-31T03:31:44.793Z,0
2017-10-31T03:32:45.816Z,0
2017-10-31T03:33:46.553Z,0
2017-10-31T03:34:47.344Z,0
2017-10-31T03:35:48.071Z,0
2017-10-31T03:36:48.866Z,0
2017-10-31T03:37:49.988Z,0
2017-10-31T03:38:50.703Z,0
2017-10-31T03:39:51.505Z,0
2017-10-31T03:40:52.316Z,0
2017-10-31T03:41:53.106Z,0
2017-10-31T03:42:53.883Z,0
2017-10-31T03:43:54.679Z,0
2017-10-31T03:44:55.452Z,0
2017-10-31T03:45:56.231Z,0
2017-10-31T03:46:57.032Z,0
2017-10-31T03:47:57.865Z,0
2017-10-31T03:48:58.660Z,0
2017-10-31T03:49:59.466Z,0
2017-10-31T03:51:00.191Z,0
2017-10-31T03:52:00.915Z,0
2017-10-31T03:53:01.726Z,0
2017-10-31T03:54:02.541Z,0
2017-10-31T03:55:03.324Z,0
2017-10-31T03:56:04.091Z,0
2017-10-31T03:57:04.812Z,0
2017-10-31T03:58:05.633Z,0
2017-10-31T03:59:07.307Z,0
2017-10-31T04:00:08.038Z,0
2017-10-31T04:01:08.951Z,0
2017-10-31T04:02:09.671Z,0
2017-10-31T04:03:10.503Z,0
2017-10-31T04:04:11.297Z,0
2017-10-31T04:05:12.080Z,0
2017-10-31T04:06:12.801Z,0
2017-10-31T04:07:13.541Z,0
2017-10-31T04:08:14.268Z,0
2017-10-31T04:09:15.003Z,0
2017-10-31T04:10:15.826Z,0
2017-10-31T04:11:16.603Z,0
2017-10-31T04:12:17.399Z,0
2017-10-31T04:13:18.220Z,0
2017-10-31T04:14:18.952Z,0
2017-10-31T04:15:19.764Z,0
2017-10-31T04:16:20.554Z,0
2017-10-31T04:17:21.321Z,0
2017-10-31T04:18:22.176Z,0
2017-10-31T04:19:22.981Z,0
2017-10-31T04:20:23.780Z,0
2017-10-31T04:21:24.510Z,0
2017-10-31T04:22:25.300Z,0
2017-10-31T04:23:26.098Z,0
2017-10-31T04:24:26.815Z,0
2017-10-31T04:25:27.607Z,0
2017-10-31T04:26:28.361Z,0
2017-10-31T04:27:29.069Z,0
2017-10-31T04:28:29.844Z,0
2017-10-31T04:29:30.561Z,0
2017-10-31T04:30:31.295Z,0
2017-10-31T04:31:32.092Z,0
2017-10-31T04:32:32.890Z,0
2017-10-31T04:33:34.019Z,0
2017-10-31T04:34:34.817Z,0
2017-10-31T04:35:35.622Z,0
2017-10-31T04:36:36.342Z,0
2017-10-31T04:37:37.143Z,0
2017-10-31T04:38:38.003Z,0
2017-10-31T04:39:38.793Z,0
2017-10-31T04:40:39.571Z,0
2017-10-31T04:41:40.301Z,0
2017-10-31T04:42:41.103Z,0
2017-10-31T04:43:42.245Z,0
2017-10-31T04:44:43.025Z,0
2017-10-31T04:45:43.765Z,0
2017-10-31T04:46:44.584Z,0
2017-10-31T04:47:45.358Z,0
2017-10-31T04:48:46.143Z,0
2017-10-31T04:49:46.954Z,0
2017-10-31T04:50:47.741Z,0
2017-10-31T04:51:48.471Z,0
2017-10-31T04:52:49.193Z,0
2017-10-31T04:53:51.254Z,0
2017-10-31T04:54:52.008Z,0
2017-10-31T04:55:53.586Z,0
2017-10-31T04:56:54.850Z,0
2017-10-31T04:57:56.503Z,0
2017-10-31T04:58:58.144Z,0
2017-10-31T04:59:59.156Z,0
2017-10-31T05:01:01.098Z,0
2017-10-31T05:02:03.264Z,0
2017-10-31T05:03:03.460Z,0
2017-10-31T05:04:05.719Z,0
2017-10-31T05:05:07.434Z,0
2017-10-31T05:06:08.113Z,0
2017-10-31T05:07:08.848Z,0
2017-10-31T05:08:09.571Z,0
2017-10-31T05:09:10.344Z,0
2017-10-31T05:10:11.145Z,0
2017-10-31T05:11:11.881Z,0
2017-10-31T05:12:12.682Z,0
2017-10-31T05:13:13.487Z,0
2017-10-31T05:14:14.252Z,0
2017-10-31T05:15:15.059Z,0
2017-10-31T05:16:15.767Z,0
2017-10-31T05:17:16.492Z,0
2017-10-31T05:18:17.230Z,0
2017-10-31T05:19:18.008Z,0
2017-10-31T05:20:18.785Z,0
2017-10-31T05:21:19.572Z,0
2017-10-31T05:22:20.372Z,0
2017-10-31T05:23:21.094Z,0
2017-10-31T05:24:21.884Z,0
2017-10-31T05:25:22.960Z,0
2017-10-31T05:26:23.693Z,0
2017-10-31T05:27:24.417Z,0
2017-10-31T05:28:25.211Z,0
2017-10-31T05:29:25.931Z,0
2017-10-31T05:30:26.822Z,0
2017-10-31T05:31:27.625Z,0
2017-10-31T05:32:28.408Z,0
2017-10-31T05:33:29.134Z,0
2017-10-31T05:34:29.835Z,0
2017-10-31T05:35:31.051Z,0
2017-10-31T05:36:31.841Z,0
2017-10-31T05:37:32.590Z,0
2017-10-31T05:38:33.320Z,0
2017-10-31T05:39:34.050Z,0
2017-10-31T05:40:34.872Z,0
2017-10-31T05:41:35.599Z,0
2017-10-31T05:42:36.320Z,0
2017-10-31T05:43:37.045Z,0
2017-10-31T05:44:37.837Z,0
2017-10-31T05:45:38.600Z,0
2017-10-31T05:46:39.320Z,0
2017-10-31T05:47:40.039Z,0
2017-10-31T05:48:40.759Z,0
2017-10-31T05:49:41.487Z,0
2017-10-31T05:50:42.264Z,0
2017-10-31T05:51:43.058Z,0
2017-10-31T05:52:43.868Z,0
2017-10-31T05:53:44.649Z,0
2017-10-31T05:54:45.379Z,0
2017-10-31T05:55:46.185Z,0
2017-10-31T05:56:46.937Z,0
2017-10-31T05:57:47.700Z,0
2017-10-31T05:58:48.433Z,0
2017-10-31T05:59:49.151Z,0
2017-10-31T06:00:49.978Z,0
2017-10-31T06:01:50.730Z,0
2017-10-31T06:02:51.452Z,0
2017-10-31T06:03:52.252Z,0
2017-10-31T06:04:53.050Z,0
2017-10-31T06:05:53.834Z,0
2017-10-31T06:06:54.561Z,5
2017-10-31T06:07:55.289Z,5
2017-10-31T06:08:56.021Z,5
2017-10-31T06:09:56.756Z,5
2017-10-31T06:10:57.610Z,11
2017-10-31T06:11:58.340Z,11
2017-10-31T06:12:59.057Z,11
2017-10-31T06:13:59.844Z,11
2017-10-31T06:15:00.572Z,16
2017-10-31T06:16:01.405Z,16
2017-10-31T06:17:02.209Z,16
2017-10-31T06:18:02.931Z,22
2017-10-31T06:19:03.660Z,22
2017-10-31T06:20:04.398Z,16
2017-10-31T06:21:05.180Z,16
2017-10-31T06:22:05.903Z,16
2017-10-31T06:23:06.634Z,16
2017-10-31T06:24:07.441Z,22
2017-10-31T06:25:08.185Z,22
2017-10-31T06:26:09.322Z,28
2017-10-31T06:27:10.120Z,28
2017-10-31T06:29:11.921Z,28
2017-10-31T06:30:12.654Z,28
2017-10-31T06:31:14.500Z,33
2017-10-31T06:32:15.407Z,33
2017-10-31T06:33:16.343Z,39
2017-10-31T06:34:18.071Z,39
2017-10-31T06:35:19.050Z,45
2017-10-31T06:36:21.052Z,50
2017-10-31T06:37:22.124Z,50
2017-10-31T06:38:22.787Z,56
2017-10-31T06:39:23.522Z,61
2017-10-31T06:40:24.317Z,67
2017-10-31T06:41:25.246Z,73
2017-10-31T06:42:26.037Z,78
2017-10-31T06:43:26.821Z,84
2017-10-31T06:44:27.552Z,90
2017-10-31T06:45:28.281Z,90
2017-10-31T06:46:29.098Z,95
2017-10-31T06:47:29.790Z,101
2017-10-31T06:48:30.556Z,106
2017-10-31T06:49:31.351Z,106
2017-10-31T06:50:32.086Z,112
2017-10-31T06:51:33.159Z,118
2017-10-31T06:52:33.889Z,118
2017-10-31T06:53:34.621Z,118
2017-10-31T06:54:35.361Z,118
2017-10-31T06:55:36.173Z,118
2017-10-31T06:56:37.011Z,118
2017-10-31T06:57:37.797Z,118
2017-10-31T06:58:38.593Z,123
2017-10-31T06:59:39.393Z,123
2017-10-31T07:00:40.203Z,123
2017-10-31T07:01:41.043Z,123
2017-10-31T07:02:41.830Z,123
2017-10-31T07:03:42.596Z,123
2017-10-31T07:04:43.378Z,123
2017-10-31T07:05:44.139Z,123
2017-10-31T07:06:44.936Z,129
2017-10-31T07:07:45.641Z,135
2017-10-31T07:08:46.363Z,135
2017-10-31T07:09:47.174Z,140
2017-10-31T07:10:47.901Z,146
2017-10-31T07:11:48.942Z,146
2017-10-31T07:12:49.680Z,151
2017-10-31T07:13:50.412Z,163
2017-10-31T07:14:51.153Z,163
2017-10-31T07:15:51.953Z,174
2017-10-31T07:16:53.451Z,180
2017-10-31T07:17:54.186Z,196
2017-10-31T07:18:54.985Z,213
2017-10-31T07:19:55.713Z,213
2017-10-31T07:20:56.631Z,208
2017-10-31T07:21:57.462Z,196
2017-10-31T07:22:58.192Z,191
2017-10-31T07:23:58.920Z,191
2017-10-31T07:24:59.645Z,191
2017-10-31T07:26:00.373Z,191
2017-10-31T07:27:01.161Z,191
2017-10-31T07:28:01.888Z,185
2017-10-31T07:29:02.691Z,185
2017-10-31T07:30:03.422Z,185
2017-10-31T07:31:04.164Z,202
2017-10-31T07:32:05.026Z,230
2017-10-31T07:33:05.769Z,253
2017-10-31T07:34:06.454Z,253
2017-10-31T07:35:07.232Z,236
2017-10-31T07:36:07.972Z,230
2017-10-31T07:37:08.809Z,241
2017-10-31T07:38:09.621Z,247
2017-10-31T07:39:10.369Z,236
2017-10-31T07:40:11.153Z,225
2017-10-31T07:41:11.882Z,213
2017-10-31T07:42:12.662Z,208
2017-10-31T07:43:13.390Z,208
2017-10-31T07:44:14.142Z,208
2017-10-31T07:45:14.930Z,208
2017-10-31T07:46:15.663Z,208
2017-10-31T07:47:16.492Z,208
2017-10-31T07:48:17.234Z,213
2017-10-31T07:49:17.992Z,213
2017-10-31T07:50:18.704Z,213
2017-10-31T07:51:19.521Z,208
2017-10-31T07:52:20.311Z,213
2017-10-31T07:53:21.041Z,219
2017-10-31T07:54:21.771Z,230
2017-10-31T07:55:22.509Z,247
2017-10-31T07:56:23.252Z,264
2017-10-31T07:57:24.331Z,275
2017-10-31T07:58:25.066Z,281
2017-10-31T07:59:25.857Z,281
2017-10-31T08:00:26.640Z,275
2017-10-31T08:01:27.373Z,264
2017-10-31T08:02:28.112Z,241
2017-10-31T08:03:28.845Z,225
2017-10-31T08:04:29.686Z,230
2017-10-31T08:05:30.493Z,247
2017-10-31T08:06:31.277Z,275
2017-10-31T08:07:32.035Z,320
2017-10-31T08:08:32.831Z,382
2017-10-31T08:09:33.610Z,450
2017-10-31T08:10:34.417Z,500
2017-10-31T08:11:35.216Z,545
2017-10-31T08:12:35.991Z,590
2017-10-31T08:13:36.771Z,601
2017-10-31T08:14:37.808Z,652
2017-10-31T08:15:38.603Z,686
2017-10-31T08:16:39.385Z,714
2017-10-31T08:17:40.204Z,720
2017-10-31T08:18:40.980Z,691
2017-10-31T08:19:42.011Z,635
2017-10-31T08:20:42.751Z,573
2017-10-31T08:21:43.481Z,528
2017-10-31T08:22:44.215Z,506
2017-10-31T08:23:44.982Z,483
2017-10-31T08:24:46.072Z,466
2017-10-31T08:25:46.805Z,466
2017-10-31T08:26:47.585Z,444
2017-10-31T08:27:48.319Z,410
2017-10-31T08:28:49.121Z,371
2017-10-31T08:29:50.243Z,331
2017-10-31T08:30:50.980Z,292
2017-10-31T08:31:51.776Z,275
2017-10-31T08:32:52.507Z,264
2017-10-31T08:33:53.314Z,264
2017-10-31T08:34:54.179Z,270
2017-10-31T08:35:54.937Z,270
2017-10-31T08:36:55.686Z,264
2017-10-31T08:37:56.391Z,258
2017-10-31T08:38:57.131Z,253
2017-10-31T08:39:57.909Z,253
2017-10-31T08:40:58.653Z,258
2017-10-31T08:41:59.399Z,264
2017-10-31T08:43:00.122Z,270
2017-10-31T08:44:00.852Z,275
2017-10-31T08:45:01.992Z,275
2017-10-31T08:46:02.739Z,286
2017-10-31T08:47:03.516Z,298
2017-10-31T08:48:04.241Z,309
2017-10-31T08:49:04.982Z,320
2017-10-31T08:50:05.968Z,337
2017-10-31T08:51:06.698Z,354
2017-10-31T08:52:07.503Z,354
2017-10-31T08:53:08.302Z,354
2017-10-31T08:54:09.104Z,343
2017-10-31T08:55:09.830Z,337
2017-10-31T08:56:10.566Z,326
2017-10-31T08:57:11.340Z,320
2017-10-31T08:58:12.071Z,326
2017-10-31T08:59:12.860Z,337
2017-10-31T09:00:13.596Z,354
2017-10-31T09:01:14.352Z,382
2017-10-31T09:02:15.082Z,410
2017-10-31T09:03:15.821Z,427
2017-10-31T09:04:16.873Z,438
2017-10-31T09:05:17.681Z,433
2017-10-31T09:06:18.415Z,421
2017-10-31T09:07:19.186Z,405
2017-10-31T09:08:19.948Z,399
2017-10-31T09:09:20.820Z,393
2017-10-31T09:10:21.556Z,388
2017-10-31T09:11:22.309Z,382
2017-10-31T09:12:23.630Z,376
2017-10-31T09:13:24.857Z,376
2017-10-31T09:14:26.316Z,371
2017-10-31T09:15:27.935Z,371
2017-10-31T09:16:29.361Z,376
2017-10-31T09:17:30.636Z,388
2017-10-31T09:18:31.420Z,399
2017-10-31T09:19:33.944Z,410
2017-10-31T09:20:35.774Z,410
2017-10-31T09:21:37.080Z,410
2017-10-31T09:22:37.751Z,410
2017-10-31T09:23:38.531Z,427
2017-10-31T09:24:40.159Z,455
2017-10-31T09:25:41.860Z,500
2017-10-31T09:26:44.172Z,540
2017-10-31T09:27:45.199Z,562
2017-10-31T09:28:47.362Z,573
2017-10-31T09:29:49.569Z,573
2017-10-31T09:30:50.264Z,573
2017-10-31T09:31:51.369Z,568
2017-10-31T09:32:52.780Z,545
2017-10-31T09:33:54.539Z,517
2017-10-31T09:34:56.805Z,495
2017-10-31T09:35:57.527Z,461
2017-10-31T09:36:59.549Z,450
2017-10-31T09:38:00.837Z,450
2017-10-31T09:40:03.625Z,478
2017-10-31T09:41:04.632Z,495
2017-10-31T09:42:05.738Z,511
2017-10-31T09:43:07.001Z,545
2017-10-31T09:44:08.122Z,579
2017-10-31T09:45:09.402Z,590
2017-10-31T09:46:10.668Z,579
2017-10-31T09:47:11.335Z,556
2017-10-31T09:48:12.072Z,540
2017-10-31T09:49:12.812Z,551
2017-10-31T09:50:13.852Z,551
2017-10-31T09:51:14.634Z,545
2017-10-31T09:52:15.371Z,534
2017-10-31T09:53:16.108Z,523
2017-10-31T09:54:16.844Z,540
2017-10-31T09:55:17.622Z,573
2017-10-31T09:56:18.366Z,579
2017-10-31T09:57:19.123Z,579
2017-10-31T09:58:19.847Z,590
2017-10-31T09:59:20.616Z,630
2017-10-31T10:00:21.743Z,663
2017-10-31T10:01:22.561Z,691
2017-10-31T10:02:23.291Z,691
2017-10-31T10:03:24.032Z,680
2017-10-31T10:04:24.760Z,663
2017-10-31T10:05:25.597Z,641
2017-10-31T10:06:26.403Z,618
2017-10-31T10:07:27.142Z,596
2017-10-31T10:08:27.881Z,585
2017-10-31T10:09:28.611Z,568
2017-10-31T10:10:29.748Z,545
2017-10-31T10:11:30.487Z,495
2017-10-31T10:12:31.221Z,438
2017-10-31T10:13:32.013Z,393
2017-10-31T10:14:32.745Z,354
2017-10-31T10:15:33.534Z,343
2017-10-31T10:16:34.349Z,331
2017-10-31T10:17:35.082Z,331
2017-10-31T10:18:35.846Z,337
2017-10-31T10:19:36.640Z,348
2017-10-31T10:20:37.471Z,354
2017-10-31T10:21:38.211Z,354
2017-10-31T10:22:39.005Z,348
2017-10-31T10:23:39.791Z,348
2017-10-31T10:24:40.527Z,365
2017-10-31T10:25:41.368Z,399
2017-10-31T10:26:42.102Z,433
2017-10-31T10:27:42.932Z,444
2017-10-31T10:28:43.744Z,444
2017-10-31T10:29:44.543Z,438
2017-10-31T10:30:45.642Z,438
2017-10-31T10:31:46.375Z,438
2017-10-31T10:32:47.143Z,438
2017-10-31T10:33:47.870Z,438
2017-10-31T10:34:48.607Z,461
2017-10-31T10:35:49.747Z,478
2017-10-31T10:36:50.551Z,489
2017-10-31T10:37:51.296Z,489
2017-10-31T10:38:52.065Z,483
2017-10-31T10:39:52.797Z,478
2017-10-31T10:40:53.630Z,461
2017-10-31T10:41:54.360Z,410
2017-10-31T10:42:55.085Z,365
2017-10-31T10:43:55.829Z,326
2017-10-31T10:44:56.561Z,286
2017-10-31T10:45:57.586Z,270
2017-10-31T10:46:58.327Z,258
2017-10-31T10:47:59.109Z,253
2017-10-31T10:48:59.914Z,258
2017-10-31T10:50:00.651Z,270
2017-10-31T10:51:01.520Z,281
2017-10-31T10:52:02.256Z,286
2017-10-31T10:53:03.043Z,298
2017-10-31T10:54:03.781Z,326
2017-10-31T10:55:04.536Z,365
2017-10-31T10:56:05.434Z,399
2017-10-31T10:57:06.230Z,450
2017-10-31T10:58:06.970Z,483
2017-10-31T10:59:07.720Z,495
2017-10-31T11:00:08.498Z,489
2017-10-31T11:01:09.339Z,489
2017-10-31T11:02:10.087Z,506
2017-10-31T11:03:10.865Z,551
2017-10-31T11:04:11.599Z,573
2017-10-31T11:05:12.383Z,585
2017-10-31T11:06:13.289Z,585
2017-10-31T11:07:14.038Z,573
2017-10-31T11:08:14.836Z,551
2017-10-31T11:09:15.631Z,551
2017-10-31T11:10:16.431Z,579
2017-10-31T11:11:17.265Z,607
2017-10-31T11:12:18.079Z,624
2017-10-31T11:13:18.820Z,635
2017-10-31T11:14:19.641Z,646
2017-10-31T11:15:20.374Z,646
2017-10-31T11:16:21.190Z,635
2017-10-31T11:17:21.920Z,618
2017-10-31T11:18:22.961Z,596
2017-10-31T11:19:23.752Z,579
2017-10-31T11:20:24.534Z,562
2017-10-31T11:21:25.333Z,534
2017-10-31T11:22:26.139Z,511
2017-10-31T11:23:26.877Z,511
2017-10-31T11:24:27.780Z,523
2017-10-31T11:25:28.527Z,511
2017-10-31T11:26:29.340Z,478
2017-10-31T11:27:30.081Z,450
2017-10-31T11:28:30.811Z,433
2017-10-31T11:29:31.601Z,421
2017-10-31T11:30:32.338Z,393
2017-10-31T11:31:33.135Z,365
2017-10-31T11:32:33.944Z,360
2017-10-31T11:33:34.685Z,348
2017-10-31T11:34:35.462Z,343
2017-10-31T11:35:36.260Z,365
2017-10-31T11:36:37.053Z,405
2017-10-31T11:37:37.853Z,410
2017-10-31T11:38:38.654Z,371
2017-10-31T11:39:39.397Z,337
2017-10-31T11:40:40.187Z,331
2017-10-31T11:41:41.210Z,326
2017-10-31T11:42:41.950Z,320
2017-10-31T11:43:42.683Z,315
2017-10-31T11:44:43.482Z,303
2017-10-31T11:45:44.316Z,309
2017-10-31T11:46:45.120Z,292
2017-10-31T11:47:46.200Z,275
2017-10-31T11:48:46.941Z,253
2017-10-31T11:49:47.672Z,247
2017-10-31T11:50:48.486Z,247
2017-10-31T11:51:49.221Z,253
2017-10-31T11:52:50.315Z,247
2017-10-31T11:53:51.102Z,241
2017-10-31T11:54:51.932Z,236
2017-10-31T11:55:52.702Z,230
2017-10-31T11:56:53.531Z,225
2017-10-31T11:57:54.272Z,213
2017-10-31T11:58:55.080Z,208
2017-10-31T11:59:55.921Z,208
2017-10-31T12:00:56.657Z,213
2017-10-31T12:01:57.400Z,213
2017-10-31T12:02:58.180Z,213
2017-10-31T12:03:58.930Z,213
2017-10-31T12:05:00.121Z,208
2017-10-31T12:06:00.861Z,208
2017-10-31T12:07:01.594Z,213
2017-10-31T12:08:02.401Z,225
2017-10-31T12:09:03.180Z,241
2017-10-31T12:10:04.210Z,258
2017-10-31T12:11:04.940Z,264
2017-10-31T12:12:05.686Z,264
2017-10-31T12:13:06.485Z,258
2017-10-31T12:14:07.291Z,258
2017-10-31T12:15:08.412Z,258
2017-10-31T12:16:09.161Z,258
2017-10-31T12:17:09.931Z,264
2017-10-31T12:18:10.686Z,270
2017-10-31T12:19:11.434Z,281
2017-10-31T12:20:12.320Z,298
2017-10-31T12:21:13.065Z,309
2017-10-31T12:22:13.861Z,326
2017-10-31T12:23:14.601Z,331
2017-10-31T12:24:15.332Z,331
2017-10-31T12:25:16.370Z,326
2017-10-31T12:26:17.129Z,320
2017-10-31T12:27:17.922Z,320
2017-10-31T12:28:18.741Z,315
2017-10-31T12:29:19.482Z,303
2017-10-31T12:30:20.574Z,286
2017-10-31T12:31:21.309Z,270
2017-10-31T12:32:22.041Z,253
2017-10-31T12:33:22.780Z,247
2017-10-31T12:34:23.512Z,247
2017-10-31T12:35:24.551Z,253
2017-10-31T12:36:25.296Z,253
2017-10-31T12:37:26.053Z,258
2017-10-31T12:38:26.822Z,258
2017-10-31T12:39:27.617Z,258
2017-10-31T12:41:42.706Z,253
2017-10-31T12:42:43.439Z,253
2017-10-31T12:43:44.181Z,247
2017-10-31T12:44:44.960Z,247
2017-10-31T12:45:45.815Z,247
2017-10-31T12:46:46.642Z,247
2017-10-31T12:47:47.421Z,247
2017-10-31T12:48:48.161Z,247
2017-10-31T12:49:48.902Z,258
2017-10-31T12:50:49.629Z,264
2017-10-31T12:51:50.360Z,270
2017-10-31T12:52:51.094Z,281
2017-10-31T12:53:51.933Z,286
2017-10-31T12:54:52.677Z,292
2017-10-31T12:55:53.476Z,303
2017-10-31T12:56:54.249Z,309
2017-10-31T12:57:57.191Z,303
2017-10-31T12:58:58.694Z,298
2017-10-31T13:00:01.304Z,298
2017-10-31T13:01:02.914Z,286
2017-10-31T13:02:04.972Z,275
2017-10-31T13:03:05.642Z,258
2017-10-31T13:04:06.457Z,236
2017-10-31T13:05:07.316Z,202
2017-10-31T13:06:08.097Z,185
2017-10-31T13:07:09.532Z,180
2017-10-31T13:08:11.758Z,180
2017-10-31T13:09:14.145Z,174
2017-10-31T13:10:16.573Z,168
2017-10-31T13:11:17.659Z,163
2017-10-31T13:12:19.573Z,163
2017-10-31T13:13:21.411Z,163
2017-10-31T13:14:23.416Z,168
2017-10-31T13:15:26.308Z,168
2017-10-31T13:16:27.577Z,168
2017-10-31T13:17:28.378Z,163
2017-10-31T13:18:29.163Z,163
2017-10-31T13:19:29.984Z,168
2017-10-31T13:20:31.011Z,157
2017-10-31T13:21:31.741Z,151
2017-10-31T13:22:32.477Z,146
2017-10-31T13:23:33.256Z,140
2017-10-31T13:24:34.077Z,140
2017-10-31T13:25:34.915Z,146
2017-10-31T13:26:35.681Z,151
2017-10-31T13:27:36.428Z,157
2017-10-31T13:28:37.152Z,174
2017-10-31T13:29:37.888Z,180
2017-10-31T13:30:38.962Z,191
2017-10-31T13:31:39.722Z,202
2017-10-31T13:32:40.432Z,213
2017-10-31T13:33:41.161Z,219
2017-10-31T13:34:41.900Z,236
2017-10-31T13:35:42.632Z,258
2017-10-31T13:36:43.366Z,270
2017-10-31T13:37:44.172Z,281
2017-10-31T13:38:44.910Z,292
2017-10-31T13:39:45.644Z,309
2017-10-31T13:40:46.487Z,320
2017-10-31T13:41:47.300Z,337
2017-10-31T13:42:48.031Z,348
2017-10-31T13:43:48.770Z,354
2017-10-31T13:44:49.512Z,354
2017-10-31T13:45:50.599Z,360
2017-10-31T13:46:51.335Z,371
2017-10-31T13:47:52.140Z,376
2017-10-31T13:48:52.877Z,376
2017-10-31T13:49:53.621Z,382
2017-10-31T13:50:54.661Z,388
2017-10-31T13:51:56.840Z,388
2017-10-31T13:52:57.660Z,382
2017-10-31T13:53:58.505Z,376
2017-10-31T13:54:59.624Z,365
2017-10-31T13:56:01.362Z,360
2017-10-31T13:57:03.629Z,348
2017-10-31T13:58:05.462Z,331
2017-10-31T14:01:09.789Z,326
2017-10-31T14:02:10.482Z,354
2017-10-31T14:03:11.281Z,365
2017-10-31T14:04:12.025Z,371
2017-10-31T14:05:12.801Z,376
2017-10-31T14:06:13.543Z,343
2017-10-31T14:07:14.270Z,315
2017-10-31T14:08:15.009Z,264
2017-10-31T14:09:15.741Z,258
2017-10-31T14:10:16.481Z,247
2017-10-31T14:11:17.271Z,275
2017-10-31T14:12:18.061Z,298
2017-10-31T14:13:18.857Z,292
2017-10-31T14:14:19.663Z,286
2017-10-31T14:15:20.407Z,292
2017-10-31T14:16:21.301Z,292
2017-10-31T14:17:22.045Z,270
2017-10-31T14:18:22.783Z,264
2017-10-31T14:19:25.115Z,258
2017-10-31T14:20:25.800Z,264
2017-10-31T14:21:28.477Z,264
2017-10-31T14:23:31.330Z,225
2017-10-31T14:24:33.599Z,202
2017-10-31T14:25:35.003Z,202
2017-10-31T14:26:36.546Z,196
2017-10-31T14:27:37.259Z,191
2017-10-31T14:28:40.259Z,185
2017-10-31T14:29:40.655Z,174
2017-10-31T14:30:41.387Z,168
2017-10-31T14:31:42.121Z,163